Time;durP1;ratioP1;P1;durP2;ratioP2;P2;SDS_P1;SDS_P2;PMS_P1;PMS_P2;Temp;Humidity;BMP_temperature;BMP_pressure;BME280_temperature;BME280_humidity;BME280_pressure;Samples;Min_cycle;Max_cycle;Signal;HPM_P1;HPM_P2
2023/10/01 00:02:07;;;;;;;7.03;4.17;;;18.60;65.20;;;19.04;46.71;95310.66;5023402;28;20444;-58
2023/10/01 00:04:36;;;;;;;7.70;3.93;;;18.60;65.20;;;19.02;46.43;95310.03;5021034;28;20479;-57
2023/10/01 00:07:04;;;;;;;4.60;3.43;;;18.60;65.20;;;19.00;46.67;95302.22;5023231;28;20563;-59
2023/10/01 00:09:33;;;;;;;10.70;3.93;;;18.60;65.20;;;18.99;46.58;95303.22;5021104;28;20484;-57
2023/10/01 00:12:00;;;;;;;10.03;3.93;;;18.50;65.10;;;18.97;46.81;95306.06;5023141;28;20463;-58
2023/10/01 00:14:27;;;;;;;14.80;4.37;;;18.50;65.10;;;18.97;47.16;95308.72;5020519;28;20477;-59
2023/10/01 00:16:54;;;;;;;14.17;3.90;;;18.50;65.10;;;18.97;46.85;95306.06;5023491;28;21000;-59
2023/10/01 00:19:22;;;;;;;5.80;3.23;;;18.50;65.10;;;18.95;47.22;95301.94;5020423;28;20489;-57
2023/10/01 00:21:50;;;;;;;8.33;4.40;;;18.50;65.20;;;18.93;47.25;95303.94;5023854;28;20623;-58
2023/10/01 00:24:17;;;;;;;8.13;4.70;;;18.40;65.00;;;18.91;47.37;95309.44;5020401;28;20481;-64
2023/10/01 00:26:45;;;;;;;11.13;3.97;;;18.50;65.20;;;18.89;46.73;95314.16;5020356;28;20520;-60
2023/10/01 00:29:13;;;;;;;9.70;4.10;;;18.50;65.60;;;18.86;47.30;95311.03;5019961;28;20477;-57
2023/10/01 00:31:41;;;;;;;7.00;4.10;;;18.40;65.60;;;18.83;47.10;95312.16;5020170;28;20726;-60
2023/10/01 00:34:08;;;;;;;12.77;3.90;;;18.40;66.00;;;18.78;47.15;95310.03;5023412;28;20555;-60
2023/10/01 00:36:36;;;;;;;8.57;4.37;;;18.40;66.10;;;18.74;47.80;95305.25;5023741;28;20869;-57
2023/10/01 00:39:06;;;;;;;7.83;4.60;;;18.30;66.50;;;18.68;48.05;95312.13;5020090;28;20474;-58
2023/10/01 00:41:33;;;;;;;11.20;4.00;;;18.20;66.50;;;18.64;48.10;95305.50;5023854;28;20476;-61
2023/10/01 00:44:04;;;;;;;11.00;4.33;;;18.20;66.70;;;18.57;48.08;95310.69;5019628;28;20613;-58
2023/10/01 00:46:33;;;;;;;8.70;4.27;;;18.10;66.90;;;18.49;48.48;95301.97;5023225;28;20460;-57
2023/10/01 00:49:01;;;;;;;5.40;4.53;;;18.10;67.20;;;18.41;48.70;95300.19;5022911;28;20516;-60
2023/10/01 00:51:31;;;;;;;8.00;4.90;;;18.00;67.30;;;18.33;48.05;95302.91;5019581;28;20576;-57
2023/10/01 00:53:59;;;;;;;10.80;4.93;;;17.90;67.30;;;18.24;48.70;95304.78;5019628;28;20449;-59
2023/10/01 00:56:28;;;;;;;10.33;5.70;;;17.80;67.50;;;18.14;48.65;95302.38;5019200;28;20610;-60
2023/10/01 00:58:55;;;;;;;6.07;4.80;;;17.70;67.70;;;18.06;48.71;95307.72;5019305;28;20849;-57
2023/10/01 01:01:23;;;;;;;11.33;4.73;;;17.70;68.20;;;17.99;49.43;95304.94;5019213;28;20473;-60
2023/10/01 01:03:52;;;;;;;15.23;5.80;;;17.60;68.40;;;17.94;49.15;95304.66;5023014;28;20487;-59
2023/10/01 01:06:23;;;;;;;10.93;4.50;;;17.50;68.80;;;17.89;49.32;95299.84;5019445;28;20454;-57
2023/10/01 01:08:52;;;;;;;4.83;3.97;;;17.50;69.00;;;17.83;49.96;95300.53;5018695;28;20521;-60
2023/10/01 01:11:21;;;;;;;7.43;4.70;;;17.40;69.10;;;17.77;49.70;95303.03;5023014;28;20456;-61
2023/10/01 01:13:51;;;;;;;13.80;4.90;;;17.40;69.50;;;17.71;50.30;95309.88;5019542;28;20446;-58
2023/10/01 01:16:19;;;;;;;5.53;3.70;;;17.30;70.40;;;17.64;50.28;95308.91;5022441;28;20492;-59
2023/10/01 01:18:47;;;;;;;7.60;4.60;;;17.20;70.30;;;17.55;50.07;95306.28;5019537;28;20453;-56
2023/10/01 01:21:14;;;;;;;6.33;4.40;;;17.20;70.30;;;17.50;50.38;95307.78;5022332;28;20601;-60
2023/10/01 01:23:45;;;;;;;8.60;5.37;;;17.10;70.20;;;17.46;50.52;95307.31;5019010;28;20468;-61
2023/10/01 01:26:13;;;;;;;6.67;4.43;;;17.10;70.20;;;17.43;50.27;95304.16;5021936;28;20461;-59
2023/10/01 01:28:41;;;;;;;7.13;4.70;;;17.00;70.20;;;17.37;50.54;95303.03;5019132;28;20981;-58
2023/10/01 01:31:10;;;;;;;11.87;5.00;;;16.90;70.70;;;17.33;50.92;95315.81;5021962;28;20823;-58
2023/10/01 01:33:44;;;;;;;19.73;4.30;;;16.90;70.80;;;17.30;50.80;95304.69;5019288;28;20519;-57
2023/10/01 01:36:12;;;;;;;15.40;4.30;;;16.90;71.00;;;17.25;51.15;95307.88;5020979;28;20495;-59
2023/10/01 01:38:48;;;;;;;6.90;5.00;;;16.90;71.50;;;17.20;51.31;95312.88;5019826;28;20512;-57
2023/10/01 01:41:19;;;;;;;5.57;5.07;;;16.80;71.60;;;17.15;51.19;95302.75;5020224;28;20484;-56
2023/10/01 01:43:49;;;;;;;7.60;5.53;;;16.70;71.70;;;17.09;51.28;95303.44;5021139;28;20627;-57
2023/10/01 01:46:18;;;;;;;5.83;4.63;;;16.70;72.00;;;17.05;51.24;95299.44;5019558;28;20445;-59
2023/10/01 01:48:51;;;;;;;5.80;4.30;;;16.70;72.00;;;17.01;51.73;95304.28;5021487;28;20488;-59
2023/10/01 01:51:20;;;;;;;4.93;4.50;;;16.60;72.10;;;16.98;51.33;95301.97;5018902;28;20474;-57
2023/10/01 01:53:50;;;;;;;5.60;4.80;;;16.60;72.10;;;16.91;51.42;95297.50;5022157;28;20555;-57
2023/10/01 01:56:19;;;;;;;5.90;3.90;;;16.60;72.50;;;16.90;51.74;95303.78;5022208;28;20969;-59
2023/10/01 01:58:47;;;;;;;13.70;4.43;;;16.50;72.70;;;16.84;51.90;95298.13;5021782;28;20966;-58
2023/10/01 02:01:23;;;;;;;4.73;4.23;;;16.50;72.90;;;16.83;51.88;95300.94;5022383;28;20492;-60
2023/10/01 02:03:51;;;;;;;5.27;4.80;;;16.50;72.90;;;16.80;51.69;95298.63;5021801;28;20445;-60
2023/10/01 02:06:26;;;;;;;4.37;4.07;;;16.40;73.30;;;16.76;52.02;95299.94;5020965;28;20523;-57
2023/10/01 02:08:57;;;;;;;13.10;4.50;;;16.40;73.30;;;16.72;51.99;95304.78;5019450;28;20536;-59
2023/10/01 02:11:24;;;;;;;4.60;4.17;;;16.30;73.30;;;16.68;52.15;95298.13;5020132;28;20444;-60
2023/10/01 02:13:54;;;;;;;7.57;4.03;;;16.30;73.70;;;16.65;52.46;95290.50;5020051;28;20464;-56
2023/10/01 02:19:18;;;;;;;8.33;5.13;;;16.20;74.10;;;16.56;52.19;95295.00;5015207;28;20536;-57
2023/10/01 02:22:00;;;;;;;7.67;4.43;;;16.20;74.10;;;16.53;52.47;95294.47;5019315;28;20481;-60
2023/10/01 02:24:44;;;;;;;4.80;4.30;;;16.20;74.40;;;16.50;52.74;95295.66;5018001;28;20485;-60
2023/10/01 02:27:12;;;;;;;9.97;4.50;;;16.10;74.70;;;16.48;52.88;95295.84;5019930;28;20469;-61
2023/10/01 02:30:11;;;;;;;11.97;4.73;;;16.10;75.60;;;16.44;52.88;95291.84;5020451;28;20473;-57
2023/10/01 02:32:35;;;;;;;13.97;5.17;;;16.10;75.00;;;16.42;52.86;95296.50;5021741;28;21044;-57
2023/10/01 02:35:33;;;;;;;6.80;4.40;;;16.10;75.20;;;16.42;52.92;95296.50;5018442;28;20477;-56
2023/10/01 02:37:50;;;;;;;7.17;4.20;;;16.00;75.50;;;16.38;53.04;95286.38;5017902;28;20426;-60
2023/10/01 02:40:18;;;;;;;6.40;4.47;;;16.00;75.60;;;16.36;52.86;95294.50;5020914;28;20465;-57
2023/10/01 02:42:49;;;;;;;4.67;4.27;;;16.00;75.60;;;16.34;53.44;95291.16;5017797;28;20489;-60
2023/10/01 02:48:16;;;;;;;5.37;4.33;;;16.00;76.90;;;16.29;53.13;95280.22;5017037;28;20437;-56
2023/10/01 02:50:45;;;;;;;5.27;4.87;;;15.90;76.30;;;16.27;53.29;95287.53;5021638;28;20843;-56
2023/10/01 02:53:19;;;;;;;23.13;5.40;;;15.90;76.60;;;16.25;53.40;95292.16;5017675;28;21039;-57
2023/10/01 02:55:47;;;;;;;6.10;4.50;;;15.90;76.90;;;16.24;53.43;95285.19;5018684;28;20461;-57
2023/10/01 02:58:27;;;;;;;6.80;4.73;;;15.90;77.00;;;16.21;53.43;95286.34;5020652;28;20456;-59
2023/10/01 03:00:53;;;;;;;5.60;4.60;;;15.80;77.00;;;16.19;53.58;95288.34;5019221;28;20954;-56
2023/10/01 03:03:31;;;;;;;12.00;4.83;;;15.80;77.50;;;16.16;53.60;95287.81;5019661;28;20444;-57
2023/10/01 03:05:59;;;;;;;5.23;4.30;;;15.80;77.40;;;16.13;53.67;95289.00;5020260;28;21107;-57
2023/10/01 03:11:12;;;;;;;5.67;4.27;;;15.80;78.60;;;16.06;53.90;95296.75;5021129;28;20602;-59
2023/10/01 03:13:40;;;;;;;8.03;4.77;;;15.70;78.20;;;16.05;54.35;95296.94;5019480;28;20480;-56
2023/10/01 03:18:55;;;;;;;5.40;4.90;;;15.70;78.70;;;16.02;54.23;95292.78;5017912;28;20779;-56
2023/10/01 03:24:03;;;;;;;11.50;4.87;;;15.70;79.10;;;16.01;54.35;95291.13;5017960;28;20497;-56
2023/10/01 03:26:33;;;;;;;5.57;4.80;;;15.70;79.30;;;15.99;54.35;95287.81;5019908;28;21029;-58
2023/10/01 03:29:17;;;;;;;11.90;4.83;;;15.70;79.60;;;15.99;54.21;95301.09;5018672;28;20557;-58
2023/10/01 03:31:46;;;;;;;8.00;4.53;;;15.60;79.60;;;15.97;54.43;95300.38;5019295;28;20477;-58
2023/10/01 03:34:28;;;;;;;8.33;4.80;;;15.60;79.90;;;15.94;54.53;95296.25;5024241;28;20623;-57
2023/10/01 03:36:58;;;;;;;12.57;5.30;;;15.60;80.30;;;15.92;54.51;95297.41;5025050;28;20445;-60
2023/10/01 03:39:26;;;;;;;10.00;4.83;;;15.60;80.50;;;15.90;54.68;95294.91;5022103;28;20481;-59
2023/10/01 03:42:10;;;;;;;5.00;4.27;;;15.60;80.90;;;15.89;54.58;95295.06;5022820;28;20972;-57
2023/10/01 03:47:23;;;;;;;7.83;5.03;;;15.50;81.40;;;15.85;54.70;95296.38;5021861;28;20868;-57
2023/10/01 03:49:54;;;;;;;10.60;4.83;;;15.50;81.50;;;15.84;54.79;95302.69;5022966;28;20476;-61
2023/10/01 03:52:21;;;;;;;5.30;4.80;;;15.50;82.20;;;15.83;54.77;95298.38;5024970;28;20545;-57
2023/10/01 03:55:00;;;;;;;5.23;4.40;;;15.50;81.40;;;15.81;54.98;95295.88;5023775;28;21016;-56
2023/10/01 03:57:29;;;;;;;4.40;4.10;;;15.50;81.60;;;15.81;54.86;95292.41;5020479;28;20492;-58
2023/10/01 03:59:57;;;;;;;10.30;5.30;;;15.50;81.70;;;15.79;55.02;95307.66;5023857;28;20519;-57
2023/10/01 04:02:43;;;;;;;6.87;5.20;;;15.40;81.80;;;15.77;54.89;95311.31;5021002;28;20584;-59
2023/10/01 04:05:21;;;;;;;5.57;4.43;;;15.40;82.80;;;15.76;55.07;95304.28;5024588;28;20472;-57
2023/10/01 04:07:48;;;;;;;5.20;4.23;;;15.40;82.40;;;15.73;55.23;95309.09;5023705;28;20502;-56
2023/10/01 04:10:28;;;;;;;6.10;5.00;;;15.40;82.70;;;15.75;55.13;95315.06;5021371;28;20472;-59
2023/10/01 04:13:00;;;;;;;12.30;4.80;;;15.40;82.90;;;15.76;55.01;95316.72;5023600;28;20540;-58
2023/10/01 04:15:28;;;;;;;8.87;6.17;;;15.40;82.80;;;15.77;55.00;95319.25;5023733;28;20473;-57
2023/10/01 04:18:19;;;;;;;6.73;4.70;;;15.40;82.90;;;15.77;55.07;95315.78;5020823;28;20457;-57
2023/10/01 04:20:49;;;;;;;9.33;4.47;;;15.40;83.00;;;15.75;54.95;95310.63;5022957;28;20481;-59
2023/10/01 04:23:23;;;;;;;9.60;5.63;;;15.40;83.00;;;15.75;55.29;95317.72;5019893;28;20611;-59
2023/10/01 04:25:52;;;;;;;6.43;4.97;;;15.40;83.60;;;15.72;55.21;95318.03;5023841;28;20472;-59
2023/10/01 04:28:20;;;;;;;13.40;5.10;;;15.40;83.10;;;15.70;54.96;95318.19;5020755;28;20469;-57
2023/10/01 04:30:51;;;;;;;11.33;5.90;;;15.40;83.20;;;15.70;55.26;95322.69;5023019;28;20488;-60
2023/10/01 04:33:22;;;;;;;11.17;5.77;;;15.40;83.50;;;15.68;55.47;95317.53;5019914;28;20986;-59
2023/10/01 04:35:55;;;;;;;13.63;5.70;;;15.40;83.60;;;15.68;55.13;95317.53;5021837;28;20474;-58
2023/10/01 04:38:26;;;;;;;13.20;5.93;;;15.40;83.40;;;15.72;55.18;95316.22;5021887;28;20527;-57
2023/10/01 04:40:54;;;;;;;12.40;6.23;;;15.40;83.80;;;15.77;55.28;95329.03;5021739;28;20954;-59
2023/10/01 04:43:26;;;;;;;6.93;5.90;;;15.40;84.10;;;15.81;55.30;95335.66;5020290;28;20489;-59
2023/10/01 04:45:53;;;;;;;8.57;6.10;;;15.40;84.30;;;15.86;55.47;95333.34;5018883;28;20499;-59
2023/10/01 04:48:23;;;;;;;13.23;6.97;;;15.50;84.50;;;15.92;55.31;95335.38;5022008;28;20450;-58
2023/10/01 04:50:53;;;;;;;15.63;6.20;;;15.50;84.40;;;15.97;55.43;95336.72;5020648;28;20473;-58
2023/10/01 04:53:21;;;;;;;18.03;6.20;;;15.60;84.90;;;16.05;55.31;95348.19;5022630;28;20483;-58
2023/10/01 04:56:00;;;;;;;18.13;6.43;;;15.70;84.80;;;16.11;55.17;95342.22;5022228;28;20815;-58
2023/10/01 04:58:32;;;;;;;13.70;7.37;;;15.70;84.50;;;16.16;55.28;95341.75;5019593;28;20457;-57
2023/10/01 05:01:01;;;;;;;10.53;7.00;;;15.80;84.70;;;16.21;54.93;95343.91;5022281;28;20515;-57
2023/10/01 05:03:38;;;;;;;13.33;7.27;;;15.80;84.50;;;16.27;54.98;95351.22;5021890;28;20489;-58
2023/10/01 05:06:09;;;;;;;13.53;6.63;;;15.90;84.10;;;16.36;54.83;95346.75;5023850;28;20456;-56
2023/10/01 05:08:39;;;;;;;14.83;6.20;;;16.00;84.10;;;16.44;54.54;95357.41;5021290;28;20537;-60
2023/10/01 05:11:10;;;;;;;9.97;5.80;;;16.10;83.80;;;16.49;55.30;95352.41;5020299;28;20459;-59
2023/10/01 05:13:40;;;;;;;12.43;6.50;;;16.10;84.50;;;16.53;54.68;95355.56;5021865;28;20532;-59
2023/10/01 05:16:07;;;;;;;6.47;5.00;;;16.10;83.80;;;16.56;54.49;95355.22;5023326;28;20549;-61
2023/10/01 05:18:35;;;;;;;12.13;5.90;;;16.20;83.70;;;16.61;54.69;95366.22;5021639;28;20456;-58
2023/10/01 05:21:09;;;;;;;8.27;5.73;;;16.20;83.70;;;16.64;54.88;95365.88;5020994;28;20535;-61
2023/10/01 05:23:37;;;;;;;10.13;6.43;;;16.30;83.80;;;16.66;54.33;95372.66;5025250;28;20487;-56
2023/10/01 05:26:06;;;;;;;13.87;5.87;;;16.30;84.10;;;16.66;54.78;95380.63;5019026;28;20927;-61
2023/10/01 05:28:34;;;;;;;9.10;6.27;;;16.30;83.70;;;16.69;54.24;95379.47;5025139;28;20441;-57
2023/10/01 05:31:08;;;;;;;20.57;5.37;;;16.30;83.30;;;16.70;54.26;95389.13;5018341;28;20981;-58
2023/10/01 05:33:35;;;;;;;8.43;5.27;;;16.30;83.30;;;16.74;54.66;95386.97;5018630;28;20468;-56
2023/10/01 05:36:05;;;;;;;10.53;5.70;;;16.40;83.30;;;16.77;54.37;95384.78;5017846;28;20485;-60
2023/10/01 05:38:34;;;;;;;6.20;4.93;;;16.40;83.30;;;16.82;54.32;95384.28;5017384;28;20468;-59
2023/10/01 05:41:03;;;;;;;13.90;5.73;;;16.40;83.50;;;16.86;54.49;95388.31;5021901;28;20552;-58
2023/10/01 05:43:37;;;;;;;16.93;6.17;;;16.50;83.40;;;16.95;54.26;95390.00;5018976;28;20546;-58
2023/10/01 05:46:08;;;;;;;14.43;6.00;;;16.60;83.30;;;17.09;54.23;95391.16;5021255;28;21066;-60
2023/10/01 05:48:37;;;;;;;10.93;6.17;;;16.70;84.00;;;17.28;54.38;95394.44;5022531;28;20519;-59
2023/10/01 05:51:06;;;;;;;16.43;5.73;;;16.80;83.50;;;17.51;53.87;95390.06;5020121;28;20477;-57
2023/10/01 05:53:33;;;;;;;8.57;6.97;;;17.00;83.00;;;17.76;53.46;95386.53;5020667;28;20836;-58
2023/10/01 05:56:07;;;;;;;12.43;6.47;;;17.20;82.50;;;18.07;53.18;95390.06;5021135;28;20492;-57
2023/10/01 05:58:35;;;;;;;15.10;6.23;;;17.50;81.90;;;18.39;51.99;95393.59;5020321;28;20996;-57
2023/10/01 06:01:13;;;;;;;6.77;6.17;;;17.80;81.10;;;18.73;51.50;95388.84;5017967;28;20566;-60
2023/10/01 06:03:42;;;;;;;13.77;6.40;;;18.10;80.60;;;19.10;51.52;95385.44;5018219;28;20473;-56
2023/10/01 06:06:13;;;;;;;9.40;5.93;;;18.50;79.70;;;19.44;50.73;95397.47;5022327;28;20623;-57
2023/10/01 06:08:49;;;;;;;11.37;5.90;;;18.80;79.00;;;19.79;50.82;95397.78;5017728;28;20476;-60
2023/10/01 06:11:17;;;;;;;17.10;7.30;;;19.10;78.60;;;20.15;50.08;95391.69;5021507;28;20449;-60
2023/10/01 06:13:53;;;;;;;11.60;6.57;;;19.50;78.10;;;20.54;49.46;95389.66;5021150;28;20848;-59
2023/10/01 06:16:23;;;;;;;15.47;6.73;;;19.80;77.20;;;20.93;48.93;95385.78;5022367;28;20978;-62
2023/10/01 06:18:56;;;;;;;12.17;7.10;;;20.20;76.40;;;21.28;48.46;95388.53;5019156;28;20503;-61
2023/10/01 06:21:25;;;;;;;7.53;6.27;;;20.60;75.60;;;21.66;48.05;95390.91;5017795;28;21035;-61
2023/10/01 06:23:52;;;;;;;16.03;7.43;;;20.90;74.20;;;22.05;47.71;95389.50;5019916;28;20540;-61
2023/10/01 06:26:22;;;;;;;13.43;7.37;;;21.30;73.70;;;22.47;47.18;95376.09;5019727;28;20465;-60
2023/10/01 06:28:49;;;;;;;8.50;6.73;;;21.70;72.90;;;22.89;45.91;95380.28;5021073;28;20461;-58
2023/10/01 06:31:17;;;;;;;11.00;7.13;;;22.10;71.30;;;23.31;45.89;95388.19;5023848;28;20866;-60
2023/10/01 06:33:45;;;;;;;18.63;7.90;;;22.50;70.70;;;23.69;44.34;95387.56;5023185;28;20548;-58
2023/10/01 06:36:19;;;;;;;11.17;7.70;;;22.90;69.70;;;24.07;44.63;95383.34;5017551;28;20489;-61
2023/10/01 06:38:47;;;;;;;9.17;7.17;;;23.30;68.70;;;24.46;42.96;95384.22;5020280;28;20453;-63
2023/10/01 06:41:16;;;;;;;12.20;8.10;;;23.70;67.20;;;24.80;42.77;95379.53;5017334;28;20460;-58
2023/10/01 06:43:49;;;;;;;10.43;7.23;;;24.10;66.90;;;25.17;42.59;95390.47;5021015;28;20871;-56
2023/10/01 06:46:21;;;;;;;9.60;7.27;;;24.40;66.30;;;25.54;42.18;95390.63;5023275;28;20461;-61
2023/10/01 06:48:50;;;;;;;9.50;6.70;;;24.80;65.10;;;25.89;41.44;95388.22;5017835;28;20449;-61
2023/10/01 06:51:21;;;;;;;9.87;7.83;;;25.10;64.20;;;26.25;41.06;95386.59;5016382;28;20461;-59
2023/10/01 06:53:58;;;;;;;17.10;7.23;;;25.50;63.10;;;26.62;40.62;95396.53;5020005;28;20974;-60
2023/10/01 06:56:26;;;;;;;23.20;8.47;;;25.80;62.60;;;27.00;40.04;95398.09;5017496;28;20839;-61
2023/10/01 07:01:47;;;;;;;25.60;9.37;;;26.50;61.10;;;27.80;38.29;95407.66;5021097;28;20833;-56
2023/10/01 07:04:15;;;;;;;10.73;7.70;;;26.90;59.60;;;28.21;38.54;95414.03;5019092;28;20494;-61
2023/10/01 07:06:45;;;;;;;10.00;8.13;;;27.30;58.70;;;28.57;38.49;95412.06;5019442;28;20448;-59
2023/10/01 07:09:27;;;;;;;12.90;7.60;;;27.70;59.00;;;28.93;37.92;95410.06;5024288;28;20559;-61
2023/10/01 07:11:56;;;;;;;13.60;9.20;;;28.00;58.50;;;29.31;37.71;95405.91;5024316;28;20848;-59
2023/10/01 07:14:30;;;;;;;15.13;8.50;;;28.40;58.10;;;29.68;37.09;95405.44;5025398;28;20477;-61
2023/10/01 07:17:00;;;;;;;21.17;8.80;;;28.80;57.80;;;30.13;37.16;95409.13;5024605;28;20537;-62
2023/10/01 07:19:27;;;;;;;21.60;9.73;;;29.20;57.60;;;30.56;36.48;95409.41;5025735;28;20475;-62
2023/10/01 07:21:58;;;;;;;25.97;9.30;;;29.60;56.60;;;31.04;36.03;95404.28;5025505;28;20700;-60
2023/10/01 07:24:28;;;;;;;12.90;8.03;;;30.20;55.80;;;31.49;35.63;95402.25;5024299;28;20279;-58
2023/10/01 07:27:03;;;;;;;15.70;8.33;;;30.70;55.20;;;31.88;35.23;95407.47;5021810;28;20253;-63
2023/10/01 07:29:33;;;;;;;15.98;9.15;;;31.20;54.50;;;32.25;34.35;95409.34;5021590;28;20217;-65
2023/10/01 07:32:04;;;;;;;14.65;9.02;;;31.60;53.20;;;32.59;34.05;95407.06;5029819;28;20205;-63
2023/10/01 07:34:32;;;;;;;31.90;8.32;;;32.10;52.60;;;32.90;33.54;95411.84;5026722;28;20714;-63
2023/10/01 07:37:04;;;;;;;15.68;9.73;;;32.40;51.90;;;33.14;33.38;95410.28;5023452;28;20222;-63
2023/10/01 07:39:37;;;;;;;13.85;9.20;;;32.70;50.90;;;33.39;31.98;95414.97;5029923;28;20302;-64
2023/10/01 07:42:09;;;;;;;22.73;8.88;;;33.00;49.90;;;33.60;32.77;95409.50;5027591;28;20714;-63
2023/10/01 07:44:37;;;;;;;18.13;9.77;;;33.20;49.80;;;33.84;32.48;95409.00;5030026;28;20210;-63
2023/10/01 07:47:04;;;;;;;15.60;9.27;;;33.50;49.20;;;33.99;31.36;95411.72;5024946;28;20206;-61
2023/10/01 07:49:46;;;;;;;16.10;9.25;;;33.70;47.50;;;34.11;30.48;95414.13;5026710;28;20725;-61
2023/10/01 07:52:18;;;;;;;13.10;9.38;;;33.70;47.50;;;34.16;31.36;95410.59;5029992;28;20284;-60
2023/10/01 07:54:48;;;;;;;16.27;9.13;;;33.80;48.00;;;34.28;30.41;95420.13;5024247;28;20777;-64
2023/10/01 07:57:17;;;;;;;19.67;9.07;;;33.90;47.60;;;34.41;31.45;95417.91;5026264;28;20240;-62
2023/10/01 07:59:46;;;;;;;18.98;8.45;;;33.90;47.60;;;34.57;30.50;95415.97;5022481;28;20726;-64
2023/10/01 08:02:22;;;;;;;15.02;10.63;;;34.10;47.40;;;34.71;30.33;95421.66;5023739;28;20670;-64
2023/10/01 08:04:58;;;;;;;17.45;9.85;;;34.20;46.80;;;34.87;30.99;95419.69;5023262;28;20222;-58
2023/10/01 08:07:31;;;;;;;20.60;9.55;;;34.30;47.20;;;35.03;30.26;95420.41;5024006;28;20694;-59
2023/10/01 08:10:00;;;;;;;19.70;10.10;;;34.50;46.70;;;35.14;30.28;95419.28;5023109;28;20306;-60
2023/10/01 08:13:04;;;;;;;22.85;10.75;;;34.60;46.60;;;35.25;29.92;95420.03;5023395;28;20228;-59
2023/10/01 08:15:32;;;;;;;22.27;11.52;;;34.80;46.50;;;35.31;30.21;95419.75;5023794;28;20248;-59
2023/10/01 08:18:19;;;;;;;20.42;11.65;;;34.80;46.20;;;35.40;30.53;95417.22;5021078;28;20218;-58
2023/10/01 08:20:57;;;;;;;17.23;9.68;;;34.90;46.20;;;35.49;30.14;95412.78;5023354;28;20221;-60
2023/10/01 08:23:27;;;;;;;24.08;10.32;;;34.90;45.90;;;35.55;29.23;95421.75;5020777;28;20822;-59
2023/10/01 08:25:55;;;;;;;28.02;10.38;;;34.90;45.70;;;35.54;29.08;95407.25;5019628;28;20254;-59
2023/10/01 08:28:43;;;;;;;31.25;11.20;;;34.90;45.10;;;35.44;30.15;95406.53;5020701;28;20285;-59
2023/10/01 08:34:22;;;;;;;34.70;16.80;;;34.80;45.80;;;35.47;29.90;95414.16;5026603;28;20200;-58
2023/10/01 08:36:42;;;;;;;16.23;10.32;;;34.80;45.70;;;35.53;29.50;95410.28;5024986;28;20687;-58
2023/10/01 08:41:57;;;;;;;26.88;12.65;;;34.80;45.30;;;35.55;28.99;95413.53;5012540;28;20252;-60
2023/10/01 08:44:30;;;;;;;22.88;12.68;;;34.80;45.20;;;35.56;28.91;95420.66;5019704;28;20259;-58
2023/10/01 08:47:21;;;;;;;22.95;10.88;;;34.90;45.20;;;35.54;28.40;95414.66;5025199;28;20198;-60
2023/10/01 08:49:50;;;;;;;21.10;12.52;;;34.80;44.70;;;35.52;29.55;95405.91;5027117;28;20300;-63
2023/10/01 08:52:19;;;;;;;24.17;13.57;;;34.80;44.90;;;35.55;28.97;95413.53;5026130;28;20580;-60
2023/10/01 08:54:49;;;;;;;22.50;9.73;;;34.80;44.80;;;35.62;29.09;95407.72;5021452;28;20253;-62
2023/10/01 08:57:18;;;;;;;16.75;10.93;;;34.80;44.70;;;35.67;28.65;95414.00;5021661;28;20244;-62
2023/10/01 08:59:45;;;;;;;23.23;11.05;;;34.90;44.60;;;35.72;28.62;95405.72;5022979;28;20314;-60
2023/10/01 09:02:16;;;;;;;21.13;10.32;;;35.00;44.60;;;35.73;28.41;95410.09;5023374;28;20354;-61
2023/10/01 09:04:48;;;;;;;21.50;10.15;;;35.00;44.40;;;35.78;28.45;95413.94;5021632;28;20670;-59
2023/10/01 09:07:19;;;;;;;20.70;9.52;;;35.00;44.40;;;35.84;28.77;95410.88;5021400;28;20723;-62
2023/10/01 09:10:05;;;;;;;24.42;10.45;;;35.00;44.40;;;35.86;28.47;95413.31;5022072;28;20229;-61
2023/10/01 09:12:35;;;;;;;20.70;9.73;;;35.10;44.80;;;35.88;28.46;95411.94;5022635;28;20185;-60
2023/10/01 09:15:06;;;;;;;15.60;9.70;;;35.10;44.10;;;35.92;28.67;95412.16;5023197;28;20221;-61
2023/10/01 09:17:56;;;;;;;19.40;9.13;;;35.10;43.80;;;35.93;28.24;95422.03;5025020;28;20195;-60
2023/10/01 09:20:39;;;;;;;18.38;10.32;;;35.10;43.30;;;35.85;27.61;95406.19;5022757;28;20240;-61
2023/10/01 09:23:07;;;;;;;25.63;12.27;;;35.10;42.50;;;35.70;28.71;95413.41;5025821;28;20252;-61
2023/10/01 09:25:39;;;;;;;24.40;12.82;;;35.00;43.30;;;35.61;27.88;95417.88;5017924;28;20582;-62
2023/10/01 09:28:20;;;;;;;23.98;12.38;;;34.90;43.40;;;35.59;27.92;95420.09;5020376;28;20744;-60
2023/10/01 09:31:19;;;;;;;34.80;15.90;;;34.90;43.60;;;35.62;27.96;95415.94;5021567;28;20769;-60
2023/10/01 09:33:48;;;;;;;25.08;13.90;;;34.80;43.50;;;35.64;28.20;95421.97;5025196;28;20281;-62
2023/10/01 09:36:35;;;;;;;33.38;14.02;;;34.90;43.60;;;35.46;28.79;95418.00;5020907;28;20209;-59
2023/10/01 09:39:04;;;;;;;30.80;14.93;;;34.80;43.40;;;35.23;28.09;95412.13;5018094;28;20229;-59
2023/10/01 09:41:34;;;;;;;30.92;15.05;;;34.60;43.40;;;35.16;28.46;95411.59;5022611;28;20197;-61
2023/10/01 09:44:03;;;;;;;24.63;15.05;;;34.50;43.70;;;35.19;28.26;95411.03;5022141;28;20253;-60
2023/10/01 09:46:33;;;;;;;25.63;14.25;;;34.50;43.90;;;35.25;28.31;95407.16;5021250;28;20202;-60
2023/10/01 09:49:02;;;;;;;27.42;12.75;;;34.50;43.90;;;35.38;28.87;95407.66;5021388;28;20301;-61
2023/10/01 09:51:31;;;;;;;18.42;12.00;;;34.50;43.80;;;35.44;28.60;95407.34;5019869;28;20597;-58
2023/10/01 09:54:00;;;;;;;23.40;12.18;;;34.60;43.70;;;35.51;28.38;95405.09;5021584;28;20213;-57
2023/10/01 09:56:29;;;;;;;18.63;11.02;;;34.70;43.50;;;35.61;27.81;95412.41;5020762;28;20287;-59
2023/10/01 09:59:03;;;;;;;14.60;9.43;;;34.80;43.50;;;35.69;28.27;95405.50;5019087;28;20206;-59
2023/10/01 10:01:31;;;;;;;15.50;10.85;;;34.80;43.00;;;35.72;27.52;95407.66;5023927;28;20221;-58
2023/10/01 10:04:01;;;;;;;17.80;10.05;;;34.90;42.90;;;35.78;27.49;95405.75;5019585;28;20659;-60
2023/10/01 10:06:29;;;;;;;19.75;10.82;;;35.00;42.50;;;35.76;27.12;95406.03;5020280;28;20289;-62
2023/10/01 10:09:06;;;;;;;13.40;9.43;;;35.00;42.50;;;35.72;27.28;95403.00;5019888;28;20206;-59
2023/10/01 10:11:36;;;;;;;17.23;9.63;;;34.90;42.40;;;35.71;27.49;95395.91;5019044;28;20212;-61
2023/10/01 10:14:44;;;;;;;25.33;10.13;;;34.90;42.10;;;35.78;27.08;95383.84;5016237;28;20234;-62
2023/10/01 10:17:19;;;;;;;11.85;9.63;;;34.90;42.20;;;35.82;27.49;95390.34;5016479;28;20610;-61
2023/10/01 10:20:15;;;;;;;22.83;10.95;;;35.00;42.30;;;35.86;27.40;95391.41;5019869;28;20735;-60
2023/10/01 10:23:17;;;;;;;19.48;10.20;;;35.00;42.00;;;35.82;27.00;95379.41;5017270;28;20194;-58
2023/10/01 10:25:45;;;;;;;28.25;11.48;;;35.00;42.30;;;35.75;28.07;95376.16;5019411;28;20252;-61
2023/10/01 10:28:12;;;;;;;13.57;11.13;;;34.90;42.30;;;35.70;27.20;95368.81;5019740;28;20198;-59
2023/10/01 10:30:46;;;;;;;12.60;9.27;;;34.90;42.40;;;35.65;27.70;95366.94;5021971;28;20769;-60
2023/10/01 10:33:38;;;;;;;14.82;10.18;;;34.80;42.30;;;35.62;27.17;95363.94;5019508;28;20255;-61
2023/10/01 10:36:50;;;;;;;21.77;9.95;;;34.80;42.20;;;35.44;27.41;95362.75;5016951;28;20204;-62
2023/10/01 10:40:22;;;;;;;21.70;9.90;;;34.70;42.30;;;35.34;27.62;95358.19;5019163;28;20342;-62
2023/10/01 10:43:19;;;;;;;14.68;10.75;;;34.60;42.20;;;35.31;28.27;95350.56;5017146;28;20285;-63
2023/10/01 10:46:06;;;;;;;13.35;10.05;;;34.50;42.30;;;35.34;27.46;95356.25;4995083;28;20238;-61
2023/10/01 10:49:00;;;;;;;20.88;9.88;;;34.50;42.40;;;35.26;27.41;95353.31;5016232;28;20300;-62
2023/10/01 10:51:46;;;;;;;19.23;10.07;;;34.50;42.30;;;35.18;27.54;95349.22;5020713;28;20198;-62
2023/10/01 10:54:16;;;;;;;20.20;11.05;;;34.40;42.10;;;35.21;28.73;95345.91;5017802;28;20233;-61
2023/10/01 10:56:44;;;;;;;19.30;10.95;;;34.50;42.80;;;35.24;28.03;95342.63;5016752;28;20274;-63
2023/10/01 10:59:14;;;;;;;18.92;10.50;;;34.50;42.50;;;35.26;27.45;95337.72;5020153;28;20615;-62
2023/10/01 11:01:47;;;;;;;19.38;11.15;;;34.50;42.30;;;35.11;27.87;95337.81;5016990;28;20194;-59